sensor_id;sensor_type;location;lat;lon;timestamp;pressure;altitude;pressure_sealevel;temperature;humidity
55077;BME280;40971;44.702;11.030;2023-05-24T00:04:39;101065.19;;;16.91;86.64
55077;BME280;40971;44.702;11.030;2023-05-24T00:14:42;101072.97;;;16.37;85.55
55077;BME280;40971;44.702;11.030;2023-05-24T00:24:46;101072.16;;;16.64;86.53
55077;BME280;40971;44.702;11.030;2023-05-24T00:34:49;101071.72;;;16.88;86.39
55077;BME280;40971;44.702;11.030;2023-05-24T00:44:54;101078.78;;;16.75;84.13
55077;BME280;40971;44.702;11.030;2023-05-24T00:54:55;101076.66;;;16.64;85.46
55077;BME280;40971;44.702;11.030;2023-05-24T01:04:57;101075.75;;;16.29;85.52
55077;BME280;40971;44.702;11.030;2023-05-24T01:15:10;101077.53;;;16.01;87.94
55077;BME280;40971;44.702;11.030;2023-05-24T01:25:45;101081.53;;;16.39;87.43
55077;BME280;40971;44.702;11.030;2023-05-24T01:35:49;101089.09;;;15.43;90.16
55077;BME280;40971;44.702;11.030;2023-05-24T01:56:10;101088.72;;;15.46;87.71
55077;BME280;40971;44.702;11.030;2023-05-24T02:06:13;101082.66;;;15.01;89.72
55077;BME280;40971;44.702;11.030;2023-05-24T02:16:15;101049.84;;;15.32;89.76
55077;BME280;40971;44.702;11.030;2023-05-24T02:26:18;101075.59;;;15.88;88.55
55077;BME280;40971;44.702;11.030;2023-05-24T02:36:20;101075.31;;;16.04;87.20
55077;BME280;40971;44.702;11.030;2023-05-24T02:46:24;101082.19;;;16.20;85.78
55077;BME280;40971;44.702;11.030;2023-05-24T02:56:28;101079.78;;;16.25;85.64
55077;BME280;40971;44.702;11.030;2023-05-24T03:06:29;101071.09;;;16.10;85.17
55077;BME280;40971;44.702;11.030;2023-05-24T03:16:31;101083.47;;;16.03;85.46
55077;BME280;40971;44.702;11.030;2023-05-24T03:26:35;101088.75;;;16.03;85.75
55077;BME280;40971;44.702;11.030;2023-05-24T03:36:38;101099.75;;;15.79;85.60
55077;BME280;40971;44.702;11.030;2023-05-24T03:46:40;101106.16;;;15.69;85.81
55077;BME280;40971;44.702;11.030;2023-05-24T03:56:43;101104.41;;;15.77;86.12
55077;BME280;40971;44.702;11.030;2023-05-24T04:06:46;101104.16;;;15.71;86.58
55077;BME280;40971;44.702;11.030;2023-05-24T04:16:49;101089.00;;;15.87;86.30
55077;BME280;40971;44.702;11.030;2023-05-24T04:26:53;101104.81;;;15.95;86.01
55077;BME280;40971;44.702;11.030;2023-05-24T04:36:57;101114.75;;;15.71;85.47
55077;BME280;40971;44.702;11.030;2023-05-24T04:47:01;101122.13;;;15.91;86.89
55077;BME280;40971;44.702;11.030;2023-05-24T04:57:05;101122.75;;;16.35;85.39
55077;BME280;40971;44.702;11.030;2023-05-24T05:07:07;101123.38;;;16.58;85.13
55077;BME280;40971;44.702;11.030;2023-05-24T05:17:10;101116.19;;;17.14;85.28
55077;BME280;40971;44.702;11.030;2023-05-24T05:27:12;101125.22;;;17.54;82.76
55077;BME280;40971;44.702;11.030;2023-05-24T05:37:15;101137.94;;;17.65;81.00
55077;BME280;40971;44.702;11.030;2023-05-24T05:47:18;101124.38;;;18.08;81.80
55077;BME280;40971;44.702;11.030;2023-05-24T05:57:21;101139.59;;;18.53;81.05
55077;BME280;40971;44.702;11.030;2023-05-24T06:07:25;101145.53;;;18.94;78.89
55077;BME280;40971;44.702;11.030;2023-05-24T06:17:28;101161.44;;;19.40;77.05
55077;BME280;40971;44.702;11.030;2023-05-24T06:27:31;101160.03;;;19.82;75.99
55077;BME280;40971;44.702;11.030;2023-05-24T06:37:33;101159.06;;;20.14;71.35
55077;BME280;40971;44.702;11.030;2023-05-24T06:47:39;101163.00;;;20.68;70.13
55077;BME280;40971;44.702;11.030;2023-05-24T06:57:42;101153.03;;;21.42;67.37
55077;BME280;40971;44.702;11.030;2023-05-24T07:07:43;101157.25;;;22.57;63.97
55077;BME280;40971;44.702;11.030;2023-05-24T07:17:47;101164.19;;;23.74;60.36
55077;BME280;40971;44.702;11.030;2023-05-24T07:27:50;101177.03;;;24.29;56.38
55077;BME280;40971;44.702;11.030;2023-05-24T07:37:51;101171.88;;;25.06;56.72
55077;BME280;40971;44.702;11.030;2023-05-24T07:47:54;101172.72;;;26.15;51.68
55077;BME280;40971;44.702;11.030;2023-05-24T07:57:58;101177.19;;;26.31;50.72
55077;BME280;40971;44.702;11.030;2023-05-24T08:08:00;101174.16;;;26.54;49.78
55077;BME280;40971;44.702;11.030;2023-05-24T08:18:04;101182.63;;;27.41;47.06
55077;BME280;40971;44.702;11.030;2023-05-24T08:28:08;101160.63;;;27.90;44.63
55077;BME280;40971;44.702;11.030;2023-05-24T08:38:12;101170.66;;;27.99;44.62
55077;BME280;40971;44.702;11.030;2023-05-24T08:48:16;101166.16;;;28.65;43.60
55077;BME280;40971;44.702;11.030;2023-05-24T08:58:19;101173.75;;;28.68;43.99
55077;BME280;40971;44.702;11.030;2023-05-24T09:08:21;101166.41;;;28.99;42.06
55077;BME280;40971;44.702;11.030;2023-05-24T09:18:24;101153.41;;;29.06;42.10
55077;BME280;40971;44.702;11.030;2023-05-24T09:28:31;101151.97;;;29.93;40.35
55077;BME280;40971;44.702;11.030;2023-05-24T09:38:34;101150.41;;;29.08;41.36
55077;BME280;40971;44.702;11.030;2023-05-24T09:48:37;101150.97;;;28.59;44.37
55077;BME280;40971;44.702;11.030;2023-05-24T09:58:38;101144.22;;;28.37;45.35
55077;BME280;40971;44.702;11.030;2023-05-24T10:08:42;101132.53;;;27.86;43.66
55077;BME280;40971;44.702;11.030;2023-05-24T10:18:48;101127.19;;;28.71;45.30
55077;BME280;40971;44.702;11.030;2023-05-24T10:28:55;101125.00;;;29.63;44.33
55077;BME280;40971;44.702;11.030;2023-05-24T10:38:56;101105.81;;;28.55;47.19
55077;BME280;40971;44.702;11.030;2023-05-24T10:49:00;101095.25;;;28.48;47.01
55077;BME280;40971;44.702;11.030;2023-05-24T10:59:02;101099.84;;;28.48;45.62
55077;BME280;40971;44.702;11.030;2023-05-24T11:09:10;101076.00;;;29.59;42.39
55077;BME280;40971;44.702;11.030;2023-05-24T11:19:20;101058.22;;;28.64;46.72
55077;BME280;40971;44.702;11.030;2023-05-24T11:29:23;101037.66;;;27.77;45.85
55077;BME280;40971;44.702;11.030;2023-05-24T11:39:33;101031.44;;;27.87;47.21
55077;BME280;40971;44.702;11.030;2023-05-24T11:49:36;101023.19;;;29.52;43.16
55077;BME280;40971;44.702;11.030;2023-05-24T11:59:41;101004.47;;;29.01;44.41
55077;BME280;40971;44.702;11.030;2023-05-24T12:09:46;100997.03;;;29.32;40.53
55077;BME280;40971;44.702;11.030;2023-05-24T12:19:49;100998.44;;;29.24;41.78
55077;BME280;40971;44.702;11.030;2023-05-24T12:29:53;100984.56;;;29.70;41.64
55077;BME280;40971;44.702;11.030;2023-05-24T12:39:56;100987.22;;;28.82;41.02
55077;BME280;40971;44.702;11.030;2023-05-24T12:50:01;100978.59;;;29.73;37.92
55077;BME280;40971;44.702;11.030;2023-05-24T13:00:04;100990.31;;;29.24;36.51
55077;BME280;40971;44.702;11.030;2023-05-24T13:10:06;101017.13;;;28.11;37.38
55077;BME280;40971;44.702;11.030;2023-05-24T13:20:08;101005.81;;;26.97;42.38
55077;BME280;40971;44.702;11.030;2023-05-24T13:30:11;100991.19;;;26.36;45.17
55077;BME280;40971;44.702;11.030;2023-05-24T13:40:13;101001.88;;;26.16;48.13
55077;BME280;40971;44.702;11.030;2023-05-24T13:50:17;101020.53;;;25.95;51.64
55077;BME280;40971;44.702;11.030;2023-05-24T14:00:22;101045.38;;;25.49;46.49
55077;BME280;40971;44.702;11.030;2023-05-24T14:10:24;101016.94;;;24.50;48.22
55077;BME280;40971;44.702;11.030;2023-05-24T14:20:26;100988.44;;;24.32;47.66
55077;BME280;40971;44.702;11.030;2023-05-24T14:30:30;100994.91;;;24.31;47.55
55077;BME280;40971;44.702;11.030;2023-05-24T14:40:34;100985.06;;;24.20;50.25
55077;BME280;40971;44.702;11.030;2023-05-24T14:50:38;100983.41;;;24.19;51.35
55077;BME280;40971;44.702;11.030;2023-05-24T15:00:42;100977.19;;;24.35;53.13
55077;BME280;40971;44.702;11.030;2023-05-24T15:10:46;100954.41;;;24.21;52.36
55077;BME280;40971;44.702;11.030;2023-05-24T15:20:48;100965.00;;;23.94;54.83
55077;BME280;40971;44.702;11.030;2023-05-24T15:30:50;100972.31;;;23.65;55.50
55077;BME280;40971;44.702;11.030;2023-05-24T15:40:53;100985.31;;;23.57;54.35
55077;BME280;40971;44.702;11.030;2023-05-24T15:50:55;100983.94;;;23.54;52.47
55077;BME280;40971;44.702;11.030;2023-05-24T16:00:57;100986.44;;;22.18;59.06
55077;BME280;40971;44.702;11.030;2023-05-24T16:10:59;100980.75;;;21.32;62.07
55077;BME280;40971;44.702;11.030;2023-05-24T16:21:04;101018.91;;;21.09;64.50
55077;BME280;40971;44.702;11.030;2023-05-24T16:31:07;101018.81;;;21.16;64.71
55077;BME280;40971;44.702;11.030;2023-05-24T16:41:09;101016.38;;;20.96;65.40
55077;BME280;40971;44.702;11.030;2023-05-24T16:51:11;101016.50;;;20.65;68.69
55077;BME280;40971;44.702;11.030;2023-05-24T17:01:13;101027.34;;;20.88;66.48
55077;BME280;40971;44.702;11.030;2023-05-24T17:11:16;101028.25;;;20.82;66.58
55077;BME280;40971;44.702;11.030;2023-05-24T17:21:21;101031.78;;;20.94;67.12
55077;BME280;40971;44.702;11.030;2023-05-24T17:31:22;101043.88;;;21.33;65.22
55077;BME280;40971;44.702;11.030;2023-05-24T17:41:23;101046.09;;;21.54;65.55
55077;BME280;40971;44.702;11.030;2023-05-24T17:51:25;101057.06;;;21.64;64.91
55077;BME280;40971;44.702;11.030;2023-05-24T18:01:27;101051.19;;;21.56;68.44
55077;BME280;40971;44.702;11.030;2023-05-24T18:11:30;101049.94;;;21.28;66.74
55077;BME280;40971;44.702;11.030;2023-05-24T18:21:33;101062.88;;;21.13;64.63
55077;BME280;40971;44.702;11.030;2023-05-24T18:31:35;101061.81;;;20.96;66.02
55077;BME280;40971;44.702;11.030;2023-05-24T18:41:37;101074.94;;;20.98;67.67
55077;BME280;40971;44.702;11.030;2023-05-24T18:51:42;101088.84;;;20.88;70.28
55077;BME280;40971;44.702;11.030;2023-05-24T19:01:44;101093.84;;;20.78;71.40
55077;BME280;40971;44.702;11.030;2023-05-24T19:11:47;101112.03;;;20.45;73.91
55077;BME280;40971;44.702;11.030;2023-05-24T19:21:50;101111.44;;;20.11;75.42
55077;BME280;40971;44.702;11.030;2023-05-24T19:31:53;101121.56;;;19.65;78.42
55077;BME280;40971;44.702;11.030;2023-05-24T19:41:57;101143.38;;;19.36;80.17
55077;BME280;40971;44.702;11.030;2023-05-24T19:52:01;101164.34;;;18.93;80.18
55077;BME280;40971;44.702;11.030;2023-05-24T20:02:06;101175.25;;;18.72;79.49
55077;BME280;40971;44.702;11.030;2023-05-24T20:12:08;101181.59;;;18.64;79.38
55077;BME280;40971;44.702;11.030;2023-05-24T20:22:12;101190.94;;;18.40;81.57
55077;BME280;40971;44.702;11.030;2023-05-24T20:32:17;101196.75;;;18.50;80.40
55077;BME280;40971;44.702;11.030;2023-05-24T20:42:19;101195.44;;;18.40;81.13
55077;BME280;40971;44.702;11.030;2023-05-24T20:52:27;101191.91;;;18.00;82.99
55077;BME280;40971;44.702;11.030;2023-05-24T21:02:30;101173.94;;;17.68;85.17
55077;BME280;40971;44.702;11.030;2023-05-24T21:12:32;101184.81;;;17.66;85.96
55077;BME280;40971;44.702;11.030;2023-05-24T21:22:34;101186.63;;;17.66;86.58
55077;BME280;40971;44.702;11.030;2023-05-24T21:32:37;101192.03;;;17.85;86.40
55077;BME280;40971;44.702;11.030;2023-05-24T21:42:39;101196.13;;;17.88;85.82
55077;BME280;40971;44.702;11.030;2023-05-24T21:52:44;101221.91;;;17.81;86.41
55077;BME280;40971;44.702;11.030;2023-05-24T22:02:46;101227.56;;;17.71;86.25
55077;BME280;40971;44.702;11.030;2023-05-24T22:12:49;101232.06;;;17.71;87.26
55077;BME280;40971;44.702;11.030;2023-05-24T22:22:50;101232.84;;;17.58;85.87
55077;BME280;40971;44.702;11.030;2023-05-24T22:32:54;101235.50;;;17.37;87.15
55077;BME280;40971;44.702;11.030;2023-05-24T22:42:59;101238.28;;;17.22;87.09
55077;BME280;40971;44.702;11.030;2023-05-24T22:53:04;101256.00;;;17.15;87.41
55077;BME280;40971;44.702;11.030;2023-05-24T23:03:06;101265.47;;;16.97;87.54
55077;BME280;40971;44.702;11.030;2023-05-24T23:13:15;101251.66;;;17.08;87.71
55077;BME280;40971;44.702;11.030;2023-05-24T23:23:22;101261.16;;;17.17;87.64
55077;BME280;40971;44.702;11.030;2023-05-24T23:33:25;101275.91;;;17.26;87.38
55077;BME280;40971;44.702;11.030;2023-05-24T23:43:26;101275.06;;;17.19;87.60
55077;BME280;40971;44.702;11.030;2023-05-24T23:53:28;101274.66;;;16.94;88.05
